< < Back
Terminal Aerodrome Forecast


Current Version              Previous Versions:   1  2  3  4  5  6  7  8  9  

Terminal Aerodrome Forecast

848
FTUS44 KMOB 280500
TAFMOB
TAF
KMOB 280527Z 2806/2906 22007KT P6SM SKC
     FM281600 27011G17KT P6SM FEW050
     FM282100 28010KT P6SM VCTS BKN045CB
      TEMPO 2821/2901 2SM +TSRA BKN015CB
     FM290100 VRB08G17KT 6SM -TSRA BR BKN020CB
     FM290300 30005KT P6SM SCT045 BKN080=

Latest METAR

008
SAUS80 KWBC 280600 RRA
MTRMOB
METAR KMOB 280556Z AUTO 24004KT 10SM CLR 27/26 A3004 RMK AO2 SLP167
T02670261 10300 20267 403330244 58006


USA.gov is the U.S. government's official web portal to all federal, state and local government web resources and services.